Time;durP1;ratioP1;P1;durP2;ratioP2;P2;SDS_P1;SDS_P2;PMS_P1;PMS_P2;Temp;Humidity;BMP_temperature;BMP_pressure;BME280_temperature;BME280_humidity;BME280_pressure;Samples;Min_cycle;Max_cycle;Signal;HPM_P1;HPM_P2
2022/02/01 00:00:41;;;;;;;;;;;22.20;47.00;;;;;;5071100;28;19951;-41
2022/02/01 00:03:09;;;;;;;;;;;22.20;47.00;;;;;;5070930;28;19958;-43
2022/02/01 00:05:50;;;;;;;;;;;22.20;47.20;;;;;;5062560;28;19956;-40
2022/02/01 00:08:32;;;;;;;;;;;22.20;47.00;;;;;;5054589;28;19963;-40
2022/02/01 00:11:17;;;;;;;;;;;22.20;47.00;;;;;;5057770;28;19928;-41
2022/02/01 00:14:01;;;;;;;;;;;22.20;47.00;;;;;;5108330;28;20329;-40
2022/02/01 00:16:50;;;;;;;;;;;22.20;47.00;;;;;;5117177;28;19924;-40
2022/02/01 00:36:00;;;;;;;;;;;22.20;47.00;;;;;;5074129;28;19924;-40
2022/02/01 00:38:39;;;;;;;;;;;22.20;47.00;;;;;;5074009;28;19972;-41
2022/02/01 00:41:08;;;;;;;;;;;22.20;47.00;;;;;;5073079;28;19966;-42
2022/02/01 00:43:36;;;;;;;;;;;22.20;47.10;;;;;;5074109;28;20335;-43
2022/02/01 00:46:04;;;;;;;;;;;22.20;47.10;;;;;;5074034;28;19964;-40
2022/02/01 00:48:31;;;;;;;;;;;22.20;47.10;;;;;;5073878;28;20031;-41
2022/02/01 00:50:58;;;;;;;;;;;22.20;47.10;;;;;;5073673;28;20055;-40
2022/02/01 00:53:31;;;;;;;;;;;22.20;47.10;;;;;;5073623;28;19958;-43
2022/02/01 00:55:59;;;;;;;;;;;22.20;47.70;;;;;;5073857;28;20407;-42
2022/02/01 00:58:26;;;;;;;;;;;22.20;47.10;;;;;;5073117;28;19928;-41
2022/02/01 01:00:53;;;;;;;;;;;22.20;47.10;;;;;;5076996;28;19972;-41
2022/02/01 01:03:22;;;;;;;;;;;22.20;47.10;;;;;;5117082;28;19927;-41
2022/02/01 01:05:50;;;;;;;;;;;22.20;47.10;;;;;;5128748;27;19923;-42
2022/02/01 01:08:17;;;;;;;;;;;22.20;47.10;;;;;;5136678;27;20010;-41
2022/02/01 01:10:44;;;;;;;;;;;22.20;47.10;;;;;;5136559;27;19929;-41
2022/02/01 01:15:49;;;;;;;;;;;22.20;47.10;;;;;;5136487;27;20394;-40
2022/02/01 01:53:59;;;;;;;;;;;22.20;47.00;;;;;;5115264;28;19932;-44
2022/02/01 01:56:27;;;;;;;;;;;22.20;47.00;;;;;;5115139;28;20448;-47
2022/02/01 01:58:53;;;;;;;;;;;22.20;47.00;;;;;;5115461;27;19923;-46
2022/02/01 02:01:20;;;;;;;;;;;22.20;47.00;;;;;;5135597;27;19943;-41
2022/02/01 02:03:48;;;;;;;;;;;22.20;47.00;;;;;;5135546;27;19924;-43
2022/02/01 02:06:17;;;;;;;;;;;22.20;47.00;;;;;;5119726;27;19924;-48
2022/02/01 02:08:47;;;;;;;;;;;22.20;47.00;;;;;;5115227;28;19973;-43
2022/02/01 02:11:22;;;;;;;;;;;22.10;46.90;;;;;;5115157;28;19923;-43
2022/02/01 02:16:38;;;;;;;;;;;22.20;47.00;;;;;;5135327;27;19932;-42
2022/02/01 02:19:05;;;;;;;;;;;22.20;47.00;;;;;;5135102;27;19924;-44
2022/02/01 02:21:33;;;;;;;;;;;22.20;47.00;;;;;;5135084;27;20448;-46
2022/02/01 02:24:00;;;;;;;;;;;22.20;47.00;;;;;;5135477;27;20014;-44
2022/02/01 02:26:29;;;;;;;;;;;22.20;47.00;;;;;;5134430;27;20474;-43
2022/02/01 02:28:57;;;;;;;;;;;22.20;47.00;;;;;;5133669;27;19923;-42
2022/02/01 02:31:25;;;;;;;;;;;22.20;47.00;;;;;;5135306;27;20349;-41
2022/02/01 02:34:01;;;;;;;;;;;22.10;46.90;;;;;;5135338;27;20314;-43
2022/02/01 02:36:31;;;;;;;;;;;22.20;47.00;;;;;;5135308;27;19968;-42
2022/02/01 02:39:06;;;;;;;;;;;22.10;46.90;;;;;;5134902;27;19946;-42
2022/02/01 02:41:37;;;;;;;;;;;22.20;47.00;;;;;;5135496;27;19924;-43
2022/02/01 02:46:53;;;;;;;;;;;22.20;47.00;;;;;;5135716;27;19963;-42
2022/02/01 02:49:21;;;;;;;;;;;22.20;47.00;;;;;;5134683;27;19924;-44
2022/02/01 02:51:49;;;;;;;;;;;22.20;47.00;;;;;;5134933;27;20002;-44
2022/02/01 02:54:18;;;;;;;;;;;22.20;47.00;;;;;;5135043;27;19981;-43
2022/02/01 02:56:47;;;;;;;;;;;22.10;46.90;;;;;;5135014;27;19942;-41
2022/02/01 02:59:15;;;;;;;;;;;22.10;46.90;;;;;;5133421;27;19923;-42
2022/02/01 03:01:47;;;;;;;;;;;22.10;46.90;;;;;;5134975;27;20028;-40
2022/02/01 03:04:16;;;;;;;;;;;22.10;46.90;;;;;;5134974;27;19947;-44
2022/02/01 03:06:44;;;;;;;;;;;22.10;46.90;;;;;;5114503;27;19959;-41
2022/02/01 03:09:11;;;;;;;;;;;22.10;46.90;;;;;;5114027;28;19924;-45
2022/02/01 03:11:39;;;;;;;;;;;22.10;46.90;;;;;;5113908;28;19927;-44
2022/02/01 03:14:21;;;;;;;;;;;22.10;46.90;;;;;;5127580;28;20335;-46
2022/02/01 03:16:56;;;;;;;;;;;22.10;46.90;;;;;;5134804;28;19992;-42
2022/02/01 03:22:09;;;;;;;;;;;22.10;46.90;;;;;;5134178;28;19923;-44
2022/02/01 03:24:36;;;;;;;;;;;22.10;46.90;;;;;;5134384;28;19923;-43
2022/02/01 03:27:03;;;;;;;;;;;22.10;46.90;;;;;;5134711;28;19984;-42
2022/02/01 03:29:31;;;;;;;;;;;22.10;46.90;;;;;;5133393;28;19923;-44
2022/02/01 03:31:57;;;;;;;;;;;22.10;47.00;;;;;;5134641;28;19972;-41
2022/02/01 03:34:25;;;;;;;;;;;22.10;47.00;;;;;;5134607;28;19924;-41
2022/02/01 03:36:51;;;;;;;;;;;22.10;47.00;;;;;;5134245;28;19970;-42
2022/02/01 03:39:18;;;;;;;;;;;22.10;47.00;;;;;;5116430;27;19992;-41
2022/02/01 03:41:45;;;;;;;;;;;22.10;47.00;;;;;;5138716;27;19923;-42
2022/02/01 03:44:12;;;;;;;;;;;22.10;47.00;;;;;;5137210;27;19923;-42
2022/02/01 03:46:50;;;;;;;;;;;22.10;47.00;;;;;;5138297;27;19974;-43
2022/02/01 03:49:17;;;;;;;;;;;22.10;47.00;;;;;;5138276;27;19928;-41
2022/02/01 03:51:44;;;;;;;;;;;22.10;47.00;;;;;;5137916;27;19928;-40
2022/02/01 03:54:11;;;;;;;;;;;22.10;47.00;;;;;;5137607;27;19923;-41
2022/02/01 03:56:38;;;;;;;;;;;22.10;47.00;;;;;;5138404;27;19934;-42
2022/02/01 03:59:05;;;;;;;;;;;22.10;47.00;;;;;;5137224;27;19927;-41
2022/02/01 04:01:32;;;;;;;;;;;22.10;47.10;;;;;;5138006;27;19928;-44
2022/02/01 04:03:59;;;;;;;;;;;22.10;47.10;;;;;;5138271;27;19959;-41
2022/02/01 04:06:26;;;;;;;;;;;22.10;47.10;;;;;;5120253;27;19928;-42
2022/02/01 04:08:53;;;;;;;;;;;22.10;47.10;;;;;;5118083;28;19923;-41
2022/02/01 04:11:20;;;;;;;;;;;22.10;47.10;;;;;;5117195;28;20337;-42
2022/02/01 04:13:47;;;;;;;;;;;22.10;47.10;;;;;;5122353;27;19972;-42
2022/02/01 04:16:14;;;;;;;;;;;22.00;47.00;;;;;;5138568;27;20375;-41
2022/02/01 04:18:41;;;;;;;;;;;22.10;47.10;;;;;;5137986;27;19927;-41
2022/02/01 04:21:08;;;;;;;;;;;22.00;47.00;;;;;;5137486;27;19924;-39
2022/02/01 04:23:35;;;;;;;;;;;22.00;47.00;;;;;;5137708;27;19966;-42
2022/02/01 04:26:02;;;;;;;;;;;22.00;47.00;;;;;;5137517;27;20013;-41
2022/02/01 04:28:29;;;;;;;;;;;22.00;47.00;;;;;;5136272;27;19931;-40
2022/02/01 04:30:56;;;;;;;;;;;22.00;47.00;;;;;;5137360;27;19924;-43
2022/02/01 04:33:23;;;;;;;;;;;22.00;47.00;;;;;;5137405;27;19929;-41
2022/02/01 04:35:50;;;;;;;;;;;22.00;47.00;;;;;;5137294;27;19973;-44
2022/02/01 04:38:17;;;;;;;;;;;22.00;47.00;;;;;;5137299;27;19923;-41
2022/02/01 04:40:44;;;;;;;;;;;22.00;47.00;;;;;;5137256;27;19969;-42
2022/02/01 04:43:11;;;;;;;;;;;22.00;47.00;;;;;;5137220;27;19945;-40
2022/02/01 04:45:39;;;;;;;;;;;22.00;47.00;;;;;;5118054;27;20344;-42
2022/02/01 04:48:07;;;;;;;;;;;22.00;47.00;;;;;;5116583;28;20064;-42
2022/02/01 04:50:34;;;;;;;;;;;22.00;47.00;;;;;;5116007;28;19923;-40
2022/02/01 04:53:01;;;;;;;;;;;22.00;47.00;;;;;;5116592;28;20324;-41
2022/02/01 04:55:39;;;;;;;;;;;22.00;47.00;;;;;;5116539;28;19975;-46
2022/02/01 04:58:06;;;;;;;;;;;22.00;47.00;;;;;;5116555;28;20014;-44
2022/02/01 05:00:33;;;;;;;;;;;22.00;47.00;;;;;;5132527;27;20426;-43
2022/02/01 05:03:00;;;;;;;;;;;22.00;47.00;;;;;;5137100;27;20373;-43
2022/02/01 05:05:29;;;;;;;;;;;22.00;47.00;;;;;;5127379;27;19928;-46
2022/02/01 05:08:00;;;;;;;;;;;22.00;47.00;;;;;;5116511;28;19924;-45
2022/02/01 05:10:28;;;;;;;;;;;22.00;47.00;;;;;;5116395;28;19928;-45
2022/02/01 05:13:06;;;;;;;;;;;22.00;47.00;;;;;;5116090;28;19923;-47
2022/02/01 05:15:33;;;;;;;;;;;22.00;47.00;;;;;;5130932;27;20030;-50
2022/02/01 05:18:00;;;;;;;;;;;22.00;47.00;;;;;;5136529;27;19974;-43
2022/02/01 05:20:42;;;;;;;;;;;22.00;47.10;;;;;;5136430;27;19972;-42
2022/02/01 05:23:09;;;;;;;;;;;22.00;47.10;;;;;;5136291;27;19980;-43
2022/02/01 05:25:36;;;;;;;;;;;22.00;47.10;;;;;;5136703;27;19927;-44
2022/02/01 05:28:03;;;;;;;;;;;22.00;47.10;;;;;;5136561;27;19983;-40
2022/02/01 05:30:30;;;;;;;;;;;22.00;47.10;;;;;;5135197;27;19945;-41
2022/02/01 05:32:57;;;;;;;;;;;22.00;47.10;;;;;;5136553;27;19924;-42
2022/02/01 05:35:24;;;;;;;;;;;22.00;47.10;;;;;;5137059;27;19931;-44
2022/02/01 05:37:51;;;;;;;;;;;22.00;47.10;;;;;;5136045;27;19972;-47
2022/02/01 05:40:19;;;;;;;;;;;22.00;47.10;;;;;;5136036;27;19975;-42
2022/02/01 05:42:58;;;;;;;;;;;22.00;47.10;;;;;;5136023;27;20390;-44
2022/02/01 05:45:25;;;;;;;;;;;22.00;47.10;;;;;;5135154;27;20002;-41
2022/02/01 05:47:53;;;;;;;;;;;22.00;47.10;;;;;;5136214;27;19923;-43
2022/02/01 05:50:20;;;;;;;;;;;22.00;47.10;;;;;;5136070;27;20034;-41
2022/02/01 05:52:47;;;;;;;;;;;22.00;47.10;;;;;;5135973;27;20029;-42
2022/02/01 05:55:15;;;;;;;;;;;22.00;47.10;;;;;;5136030;27;20006;-42
2022/02/01 05:57:43;;;;;;;;;;;22.00;47.70;;;;;;5135838;27;19923;-46
2022/02/01 06:00:11;;;;;;;;;;;22.00;47.10;;;;;;5134896;27;20002;-41
2022/02/01 06:02:40;;;;;;;;;;;22.00;47.10;;;;;;5135103;27;19923;-41
2022/02/01 06:05:07;;;;;;;;;;;22.00;47.10;;;;;;5128994;27;19923;-42
2022/02/01 06:07:34;;;;;;;;;;;22.00;47.10;;;;;;5114905;28;19928;-45
2022/02/01 06:10:01;;;;;;;;;;;22.00;47.10;;;;;;5115156;28;19924;-40
2022/02/01 06:12:37;;;;;;;;;;;22.00;47.10;;;;;;5114902;28;20380;-44
2022/02/01 06:15:05;;;;;;;;;;;22.00;47.10;;;;;;5114378;28;19982;-45
2022/02/01 06:17:32;;;;;;;;;;;22.00;47.10;;;;;;5114667;28;20371;-40
2022/02/01 06:19:59;;;;;;;;;;;21.90;47.00;;;;;;5114513;28;19979;-43
2022/02/01 06:22:26;;;;;;;;;;;21.90;47.00;;;;;;5114823;28;19924;-43
2022/02/01 06:24:53;;;;;;;;;;;21.90;47.10;;;;;;5114620;28;19949;-41
2022/02/01 06:27:20;;;;;;;;;;;21.90;47.60;;;;;;5114940;28;20295;-40
2022/02/01 06:29:47;;;;;;;;;;;21.90;47.00;;;;;;5116183;27;19939;-41
2022/02/01 06:32:15;;;;;;;;;;;21.90;47.10;;;;;;5117164;27;19983;-44
2022/02/01 06:34:43;;;;;;;;;;;21.90;47.00;;;;;;5135406;27;20290;-40
2022/02/01 06:37:10;;;;;;;;;;;21.90;47.10;;;;;;5135271;27;19924;-40
2022/02/01 06:39:40;;;;;;;;;;;21.90;47.10;;;;;;5134936;27;19924;-40
2022/02/01 06:42:08;;;;;;;;;;;21.90;47.00;;;;;;5135271;27;19927;-41
2022/02/01 06:44:35;;;;;;;;;;;21.90;47.00;;;;;;5134843;27;19924;-42
2022/02/01 06:47:02;;;;;;;;;;;21.90;47.00;;;;;;5113937;28;20019;-41
2022/02/01 06:49:29;;;;;;;;;;;21.90;47.00;;;;;;5114285;28;19923;-41
2022/02/01 06:51:56;;;;;;;;;;;21.90;47.00;;;;;;5079588;28;19924;-47
2022/02/01 06:54:23;;;;;;;;;;;21.90;47.10;;;;;;5114168;28;19924;-42
2022/02/01 06:56:50;;;;;;;;;;;21.90;47.10;;;;;;5114418;28;19959;-42
2022/02/01 06:59:22;;;;;;;;;;;21.90;47.10;;;;;;5114440;28;20398;-41
2022/02/01 07:01:49;;;;;;;;;;;21.90;47.10;;;;;;5130578;27;19970;-43
2022/02/01 07:04:16;;;;;;;;;;;21.90;47.10;;;;;;5135421;27;20011;-43
2022/02/01 07:06:43;;;;;;;;;;;21.90;47.10;;;;;;5114475;27;20272;-44
2022/02/01 07:09:11;;;;;;;;;;;21.90;47.10;;;;;;5114326;28;20023;-41
2022/02/01 07:11:39;;;;;;;;;;;21.90;47.10;;;;;;5114182;28;19927;-41
2022/02/01 07:14:06;;;;;;;;;;;21.90;47.10;;;;;;5114149;28;19974;-43
2022/02/01 07:16:35;;;;;;;;;;;21.90;47.10;;;;;;5126713;28;20018;-43
2022/02/01 07:19:03;;;;;;;;;;;21.90;47.10;;;;;;5134643;28;19924;-45
2022/02/01 07:21:30;;;;;;;;;;;21.90;47.00;;;;;;5134523;28;19972;-41
2022/02/01 07:23:57;;;;;;;;;;;21.90;47.00;;;;;;5135522;28;19923;-49
2022/02/01 07:26:24;;;;;;;;;;;21.90;47.10;;;;;;5116253;28;19930;-47
2022/02/01 07:28:50;;;;;;;;;;;21.90;47.00;;;;;;5134549;28;20052;-48
2022/02/01 07:31:17;;;;;;;;;;;21.90;47.10;;;;;;5115050;28;20324;-43
2022/02/01 07:33:45;;;;;;;;;;;21.90;47.00;;;;;;5134624;28;19923;-43
2022/02/01 07:36:16;;;;;;;;;;;21.90;47.10;;;;;;5134619;28;19966;-45
2022/02/01 07:38:44;;;;;;;;;;;21.90;47.00;;;;;;5134897;28;20330;-44
2022/02/01 07:41:12;;;;;;;;;;;21.90;47.00;;;;;;5134243;28;19971;-42
2022/02/01 07:43:39;;;;;;;;;;;21.90;47.10;;;;;;5134237;28;20386;-45
2022/02/01 07:46:09;;;;;;;;;;;21.90;47.10;;;;;;5133156;28;19923;-41
2022/02/01 07:48:36;;;;;;;;;;;21.90;47.00;;;;;;5116233;28;19924;-45
2022/02/01 07:51:03;;;;;;;;;;;21.90;47.00;;;;;;5134448;28;20282;-45
2022/02/01 07:53:30;;;;;;;;;;;21.90;47.00;;;;;;5133973;28;20371;-45
2022/02/01 07:55:57;;;;;;;;;;;21.90;47.00;;;;;;5134429;28;20342;-44
2022/02/01 07:58:24;;;;;;;;;;;21.90;47.00;;;;;;5134249;28;19927;-42
2022/02/01 08:00:51;;;;;;;;;;;21.90;47.00;;;;;;5133253;28;19927;-41
2022/02/01 08:03:18;;;;;;;;;;;21.90;47.00;;;;;;5134198;28;19927;-42
2022/02/01 08:05:46;;;;;;;;;;;21.90;47.00;;;;;;5130927;28;19928;-44
2022/02/01 08:08:13;;;;;;;;;;;21.90;47.00;;;;;;5134012;28;19923;-43
2022/02/01 08:10:45;;;;;;;;;;;21.90;47.00;;;;;;5133879;28;20405;-41
2022/02/01 08:21:05;;;;;;;;;;;21.90;46.90;;;;;;5133748;28;20428;-46
2022/02/01 08:23:34;;;;;;;;;;;22.00;46.90;;;;;;5133889;28;19923;-42
2022/02/01 08:26:01;;;;;;;;;;;22.00;46.90;;;;;;5134927;27;20018;-43
2022/02/01 08:28:29;;;;;;;;;;;22.00;46.90;;;;;;5137408;27;19928;-42
2022/02/01 08:30:59;;;;;;;;;;;22.00;46.90;;;;;;5136607;27;19931;-41
2022/02/01 08:33:27;;;;;;;;;;;22.00;46.80;;;;;;5137456;27;19923;-41
2022/02/01 08:35:54;;;;;;;;;;;22.00;46.80;;;;;;5137647;27;20343;-45
2022/02/01 08:38:20;;;;;;;;;;;22.00;46.80;;;;;;5137290;27;20347;-40
2022/02/01 08:40:48;;;;;;;;;;;22.00;46.70;;;;;;5137229;27;19952;-42
2022/02/01 08:43:16;;;;;;;;;;;22.00;46.70;;;;;;5137179;27;19924;-44
2022/02/01 08:45:43;;;;;;;;;;;22.00;46.70;;;;;;5138013;27;19972;-43
2022/02/01 08:48:11;;;;;;;;;;;22.10;46.70;;;;;;5136014;27;19923;-46
2022/02/01 08:50:38;;;;;;;;;;;22.10;46.70;;;;;;5137115;27;19934;-44
2022/02/01 08:53:13;;;;;;;;;;;22.10;46.60;;;;;;5137041;27;19923;-42
2022/02/01 08:56:02;;;;;;;;;;;22.10;46.60;;;;;;5137280;27;20339;-45
2022/02/01 08:58:30;;;;;;;;;;;22.10;46.60;;;;;;5137487;27;19928;-44
2022/02/01 09:00:57;;;;;;;;;;;22.10;46.60;;;;;;5118644;27;19976;-40
2022/02/01 09:03:24;;;;;;;;;;;22.10;46.60;;;;;;5135676;27;19930;-40
2022/02/01 09:05:52;;;;;;;;;;;22.10;46.50;;;;;;5124208;27;19984;-40
2022/02/01 09:08:22;;;;;;;;;;;22.10;46.50;;;;;;5116412;28;20276;-42
2022/02/01 09:10:49;;;;;;;;;;;22.10;46.50;;;;;;5116048;28;20379;-40
2022/02/01 09:13:17;;;;;;;;;;;22.10;46.50;;;;;;5116291;28;19924;-40
2022/02/01 09:15:44;;;;;;;;;;;22.10;46.50;;;;;;5115948;28;19923;-43
2022/02/01 09:18:11;;;;;;;;;;;22.20;46.50;;;;;;5131731;27;19970;-39
2022/02/01 09:20:38;;;;;;;;;;;22.20;46.50;;;;;;5136144;27;19987;-44
2022/02/01 09:23:05;;;;;;;;;;;22.20;46.50;;;;;;5136489;27;19930;-45
2022/02/01 09:25:32;;;;;;;;;;;22.20;46.50;;;;;;5136588;27;20010;-42
2022/02/01 09:28:00;;;;;;;;;;;22.20;46.40;;;;;;5136396;27;19923;-45
2022/02/01 09:30:27;;;;;;;;;;;22.20;46.40;;;;;;5136520;27;20340;-43
2022/02/01 09:32:55;;;;;;;;;;;22.20;46.30;;;;;;5134831;27;19930;-42
2022/02/01 09:35:22;;;;;;;;;;;22.20;46.30;;;;;;5136116;27;19945;-42
2022/02/01 09:37:49;;;;;;;;;;;22.30;46.40;;;;;;5134914;27;20455;-41
2022/02/01 09:40:36;;;;;;;;;;;22.30;46.30;;;;;;5135919;27;20378;-41
2022/02/01 09:43:03;;;;;;;;;;;22.30;46.30;;;;;;5136356;27;19930;-40
2022/02/01 09:45:33;;;;;;;;;;;22.30;46.90;;;;;;5135925;27;19924;-43
2022/02/01 09:48:05;;;;;;;;;;;22.30;46.30;;;;;;5135072;27;20005;-42
2022/02/01 09:50:33;;;;;;;;;;;22.30;46.30;;;;;;5135897;27;19927;-43
2022/02/01 09:53:00;;;;;;;;;;;22.30;46.30;;;;;;5135569;27;19977;-40
2022/02/01 09:55:28;;;;;;;;;;;22.30;46.30;;;;;;5136043;27;19924;-43
2022/02/01 09:57:55;;;;;;;;;;;22.30;46.30;;;;;;5135902;27;19959;-41
2022/02/01 10:00:24;;;;;;;;;;;22.30;46.30;;;;;;5117713;27;19923;-42
2022/02/01 10:03:06;;;;;;;;;;;22.30;46.30;;;;;;5118753;27;19923;-43
2022/02/01 10:05:37;;;;;;;;;;;22.30;46.30;;;;;;5125603;27;19967;-43
2022/02/01 10:08:04;;;;;;;;;;;22.30;46.30;;;;;;5115283;28;19958;-45
2022/02/01 10:10:33;;;;;;;;;;;22.30;46.30;;;;;;5115141;28;19953;-47
2022/02/01 10:13:08;;;;;;;;;;;22.30;46.30;;;;;;5115649;28;19928;-43
2022/02/01 10:15:35;;;;;;;;;;;22.30;46.30;;;;;;5114888;28;19924;-47
2022/02/01 10:18:03;;;;;;;;;;;22.30;46.40;;;;;;5124154;27;19962;-43
2022/02/01 10:20:33;;;;;;;;;;;22.30;46.30;;;;;;5135283;27;19972;-45
2022/02/01 10:23:14;;;;;;;;;;;22.30;46.30;;;;;;5135307;27;20290;-49
2022/02/01 10:25:41;;;;;;;;;;;22.30;47.00;;;;;;5135205;27;19923;-50
2022/02/01 10:28:11;;;;;;;;;;;22.30;46.30;;;;;;5135053;27;20386;-43
2022/02/01 10:30:47;;;;;;;;;;;22.30;46.40;;;;;;5135132;27;19923;-47
2022/02/01 10:33:52;;;;;;;;;;;22.30;46.40;;;;;;5133705;27;20022;-44
2022/02/01 10:36:12;;;;;;;;;;;22.30;46.40;;;;;;5135195;27;19930;-46
2022/02/01 10:38:40;;;;;;;;;;;22.30;46.50;;;;;;5134893;27;19927;-46
2022/02/01 10:41:10;;;;;;;;;;;22.30;46.40;;;;;;5134834;27;19978;-43
2022/02/01 10:43:37;;;;;;;;;;;22.30;46.40;;;;;;5135156;27;19927;-44
2022/02/01 10:46:09;;;;;;;;;;;22.30;46.50;;;;;;5134878;27;19923;-41
2022/02/01 10:48:44;;;;;;;;;;;22.30;46.50;;;;;;5133755;27;20421;-44
2022/02/01 10:51:14;;;;;;;;;;;22.30;46.50;;;;;;5117526;27;19946;-44
2022/02/01 10:53:42;;;;;;;;;;;22.30;46.50;;;;;;5135236;27;20285;-42
2022/02/01 10:56:10;;;;;;;;;;;22.30;46.50;;;;;;5134690;27;20434;-43
2022/02/01 10:58:38;;;;;;;;;;;22.30;46.50;;;;;;5134874;27;19938;-42
2022/02/01 11:01:06;;;;;;;;;;;22.30;46.50;;;;;;5134626;27;20021;-40
2022/02/01 11:03:39;;;;;;;;;;;22.30;46.50;;;;;;5133603;27;19931;-40
2022/02/01 11:06:06;;;;;;;;;;;22.30;46.50;;;;;;5119764;27;19928;-41
2022/02/01 11:08:35;;;;;;;;;;;22.30;46.60;;;;;;5114003;28;20379;-42
2022/02/01 11:11:02;;;;;;;;;;;22.30;46.60;;;;;;5113949;28;19998;-45
2022/02/01 11:13:40;;;;;;;;;;;22.30;47.20;;;;;;5114176;28;20260;-41
2022/02/01 11:16:11;;;;;;;;;;;22.30;46.60;;;;;;5114301;28;20321;-43
2022/02/01 11:18:38;;;;;;;;;;;22.30;46.60;;;;;;5122860;28;19928;-40
2022/02/01 11:21:05;;;;;;;;;;;22.30;46.60;;;;;;5135010;28;20332;-40
2022/02/01 11:23:35;;;;;;;;;;;22.30;46.60;;;;;;5134540;28;19973;-46
2022/02/01 11:26:08;;;;;;;;;;;22.30;46.60;;;;;;5134352;28;20018;-43
2022/02/01 11:28:47;;;;;;;;;;;22.30;46.60;;;;;;5134480;28;19955;-45
2022/02/01 11:31:15;;;;;;;;;;;22.30;46.60;;;;;;5134595;28;19928;-42
2022/02/01 11:33:44;;;;;;;;;;;22.30;46.60;;;;;;5133054;28;20386;-45
2022/02/01 11:36:12;;;;;;;;;;;22.40;46.60;;;;;;5134241;28;19946;-41
2022/02/01 11:38:55;;;;;;;;;;;22.40;46.70;;;;;;5134250;28;20014;-44
2022/02/01 11:41:32;;;;;;;;;;;22.40;46.60;;;;;;5134270;28;20431;-41
2022/02/01 11:44:06;;;;;;;;;;;22.40;46.60;;;;;;5134486;28;20070;-47
2022/02/01 11:46:33;;;;;;;;;;;22.30;46.60;;;;;;5134180;28;19923;-43
2022/02/01 11:49:01;;;;;;;;;;;22.40;46.60;;;;;;5133186;28;19935;-44
2022/02/01 11:51:48;;;;;;;;;;;22.40;46.60;;;;;;5133846;28;19924;-41
2022/02/01 11:54:18;;;;;;;;;;;22.40;46.60;;;;;;5134450;28;19927;-42
2022/02/01 11:56:45;;;;;;;;;;;22.40;46.60;;;;;;5134061;28;19962;-47
2022/02/01 11:59:24;;;;;;;;;;;22.40;46.60;;;;;;5134323;28;19923;-42
2022/02/01 12:01:59;;;;;;;;;;;22.40;46.60;;;;;;5136661;27;19976;-44
2022/02/01 12:04:26;;;;;;;;;;;22.40;46.60;;;;;;5136577;27;20397;-42
2022/02/01 12:07:07;;;;;;;;;;;22.40;46.60;;;;;;5117749;28;19923;-43
2022/02/01 12:09:34;;;;;;;;;;;22.40;46.50;;;;;;5117354;28;19928;-42
2022/02/01 12:12:02;;;;;;;;;;;22.40;46.50;;;;;;5117239;28;19924;-44
2022/02/01 12:14:29;;;;;;;;;;;22.40;46.50;;;;;;5099213;28;19924;-43
2022/02/01 12:16:57;;;;;;;;;;;22.40;46.50;;;;;;5117191;28;19924;-44
2022/02/01 12:19:29;;;;;;;;;;;22.50;46.60;;;;;;5126880;27;20369;-41
2022/02/01 12:22:36;;;;;;;;;;;22.50;46.60;;;;;;5137477;27;19924;-45
2022/02/01 12:25:05;;;;;;;;;;;22.50;46.50;;;;;;5137886;27;20320;-40
2022/02/01 12:27:34;;;;;;;;;;;22.50;46.50;;;;;;5137682;27;19923;-45
2022/02/01 12:30:02;;;;;;;;;;;22.50;46.50;;;;;;5137403;27;19927;-41
2022/02/01 12:32:29;;;;;;;;;;;22.50;46.50;;;;;;5137359;27;19976;-42
2022/02/01 12:34:56;;;;;;;;;;;22.50;46.40;;;;;;5136520;27;19968;-42
2022/02/01 12:37:23;;;;;;;;;;;22.50;46.40;;;;;;5137360;27;19973;-46
2022/02/01 12:40:04;;;;;;;;;;;22.60;46.50;;;;;;5137619;27;19928;-47
2022/02/01 12:42:52;;;;;;;;;;;22.50;46.40;;;;;;5137557;27;19923;-46
2022/02/01 12:48:06;;;;;;;;;;;22.50;46.40;;;;;;5137195;27;19923;-46
2022/02/01 12:50:33;;;;;;;;;;;22.60;46.50;;;;;;5136048;27;20386;-44
2022/02/01 12:53:04;;;;;;;;;;;22.50;46.50;;;;;;5136785;27;20409;-41
2022/02/01 12:55:31;;;;;;;;;;;22.50;46.50;;;;;;5138071;27;19931;-44
2022/02/01 12:58:13;;;;;;;;;;;22.50;46.50;;;;;;5137258;27;20302;-43
2022/02/01 13:00:40;;;;;;;;;;;22.60;46.50;;;;;;5136814;27;19924;-42
2022/02/01 13:03:08;;;;;;;;;;;22.60;46.50;;;;;;5118872;27;19972;-43
2022/02/01 13:05:35;;;;;;;;;;;22.60;46.50;;;;;;5125298;27;20378;-44
2022/02/01 13:08:24;;;;;;;;;;;22.50;46.40;;;;;;5116199;28;19923;-43
2022/02/01 13:21:05;;;;;;;;;;;22.60;46.40;;;;;;5133456;27;20404;-41
2022/02/01 13:23:40;;;;;;;;;;;22.60;46.40;;;;;;5136286;27;19931;-45
2022/02/01 13:26:08;;;;;;;;;;;22.70;46.50;;;;;;5136417;27;20014;-43
2022/02/01 13:29:11;;;;;;;;;;;22.70;46.40;;;;;;5136226;27;19930;-42
2022/02/01 13:31:40;;;;;;;;;;;22.60;46.30;;;;;;5136374;27;19931;-43
2022/02/01 13:34:11;;;;;;;;;;;22.70;46.40;;;;;;5135529;27;20019;-44
2022/02/01 13:36:46;;;;;;;;;;;22.70;46.40;;;;;;5118434;27;19923;-41
2022/02/01 13:39:22;;;;;;;;;;;22.70;46.40;;;;;;5136409;27;20333;-42
2022/02/01 13:41:55;;;;;;;;;;;22.70;47.00;;;;;;5136148;27;20040;-41
2022/02/01 13:44:55;;;;;;;;;;;22.70;46.30;;;;;;5136628;27;20014;-45
2022/02/01 13:47:32;;;;;;;;;;;22.70;46.40;;;;;;5136843;27;19949;-46
2022/02/01 13:50:00;;;;;;;;;;;22.70;46.30;;;;;;5134916;27;19978;-45
2022/02/01 13:52:27;;;;;;;;;;;22.70;46.30;;;;;;5135637;27;19949;-45
2022/02/01 13:54:54;;;;;;;;;;;22.70;46.30;;;;;;5135830;27;20379;-44
2022/02/01 13:57:22;;;;;;;;;;;22.70;46.30;;;;;;5117756;27;19927;-47
2022/02/01 13:59:49;;;;;;;;;;;22.80;46.40;;;;;;5117557;27;20405;-43
2022/02/01 14:02:23;;;;;;;;;;;22.70;46.30;;;;;;5117627;27;20493;-45
2022/02/01 14:05:03;;;;;;;;;;;22.70;46.30;;;;;;5130729;27;19930;-46
2022/02/01 14:08:18;;;;;;;;;;;22.80;46.30;;;;;;5115921;28;19980;-48
2022/02/01 14:11:53;;;;;;;;;;;22.80;46.40;;;;;;5115359;28;19928;-44
2022/02/01 14:35:52;;;;;;;;;;;22.80;46.40;;;;;;5124314;27;20333;-40
2022/02/01 14:46:16;;;;;;;;;;;22.80;46.50;;;;;;5135241;27;19968;-41
2022/02/01 14:48:48;;;;;;;;;;;22.80;46.50;;;;;;5135129;27;19923;-44
2022/02/01 14:51:15;;;;;;;;;;;22.80;46.40;;;;;;5134039;27;20332;-44
2022/02/01 14:53:42;;;;;;;;;;;22.80;46.50;;;;;;5134826;27;20077;-45
2022/02/01 14:56:12;;;;;;;;;;;22.80;46.50;;;;;;5134995;27;19998;-44
2022/02/01 15:07:05;;;;;;;;;;;22.80;46.50;;;;;;5130069;27;19947;-47
2022/02/01 15:14:54;;;;;;;;;;;22.80;46.50;;;;;;5103228;28;19927;-41
2022/02/01 15:17:21;;;;;;;;;;;22.80;46.50;;;;;;5113964;28;19928;-40
2022/02/01 15:19:48;;;;;;;;;;;22.80;46.50;;;;;;5113701;28;20018;-42
2022/02/01 15:22:15;;;;;;;;;;;22.80;46.50;;;;;;5131136;28;20022;-42
2022/02/01 15:24:45;;;;;;;;;;;22.80;46.50;;;;;;5134394;28;20018;-41
2022/02/01 15:27:18;;;;;;;;;;;22.80;46.50;;;;;;5134226;28;20371;-41
2022/02/01 15:29:46;;;;;;;;;;;22.80;46.50;;;;;;5134705;28;20022;-44
2022/02/01 15:32:14;;;;;;;;;;;22.80;46.50;;;;;;5134658;28;19945;-42
2022/02/01 15:35:02;;;;;;;;;;;22.80;46.60;;;;;;5135853;27;19928;-42
2022/02/01 15:37:32;;;;;;;;;;;22.80;46.60;;;;;;5137490;27;19949;-40
2022/02/01 15:59:26;;;;;;;;;;;22.70;46.60;;;;;;5138181;27;19923;-40
2022/02/01 16:02:14;;;;;;;;;;;22.70;46.60;;;;;;5138657;27;20339;-41
2022/02/01 16:04:51;;;;;;;;;;;22.70;46.60;;;;;;5135317;27;20021;-42
2022/02/01 16:07:18;;;;;;;;;;;22.70;46.70;;;;;;5130899;27;19978;-44
2022/02/01 16:10:34;;;;;;;;;;;22.70;46.70;;;;;;5138277;27;20443;-42
2022/02/01 16:12:58;;;;;;;;;;;22.70;46.70;;;;;;5137728;27;19924;-41
2022/02/01 16:15:25;;;;;;;;;;;22.70;46.70;;;;;;5137873;27;19924;-41
2022/02/01 16:17:52;;;;;;;;;;;22.70;46.70;;;;;;5137750;27;19923;-45
2022/02/01 16:20:19;;;;;;;;;;;22.70;46.70;;;;;;5137542;27;19970;-42
2022/02/01 16:22:46;;;;;;;;;;;22.70;46.70;;;;;;5136735;27;20330;-40
2022/02/01 16:25:13;;;;;;;;;;;22.70;46.70;;;;;;5137590;27;19927;-41
2022/02/01 16:27:40;;;;;;;;;;;22.70;46.80;;;;;;5137502;27;19977;-43
2022/02/01 16:30:14;;;;;;;;;;;22.70;46.80;;;;;;5137816;27;19923;-41
2022/02/01 16:32:42;;;;;;;;;;;22.70;46.80;;;;;;5137347;27;19980;-41
2022/02/01 16:35:09;;;;;;;;;;;22.70;46.70;;;;;;5137526;27;20332;-40
2022/02/01 16:37:37;;;;;;;;;;;22.70;46.70;;;;;;5136477;27;19962;-41
2022/02/01 16:40:06;;;;;;;;;;;22.70;46.80;;;;;;5137544;27;19962;-41
2022/02/01 16:42:37;;;;;;;;;;;22.70;46.80;;;;;;5137276;27;20363;-42
2022/02/01 16:45:15;;;;;;;;;;;22.70;46.70;;;;;;5137640;27;19968;-42
2022/02/01 16:48:01;;;;;;;;;;;22.70;46.80;;;;;;5136847;27;19924;-41
2022/02/01 16:50:37;;;;;;;;;;;22.70;46.80;;;;;;5137435;27;20336;-41
2022/02/01 16:53:11;;;;;;;;;;;22.70;46.80;;;;;;5136133;27;20298;-41
2022/02/01 16:56:05;;;;;;;;;;;22.70;46.80;;;;;;5137242;27;19931;-43
2022/02/01 16:58:55;;;;;;;;;;;22.70;46.80;;;;;;5137258;27;20011;-43
2022/02/01 17:01:23;;;;;;;;;;;22.70;46.80;;;;;;5119072;27;19946;-40